Time,TemperatureF,DewpointF,PressureIn,WindDirection,WindDirectionDegrees,WindSpeedMPH,WindSpeedGustMPH,Humidity,HourlyPrecipIn,Conditions,Clouds,dailyrainin,SolarRadiationWatts/m^2,SoftwareType,DateUTC
2013-01-25 00:00:00,52.6,50.3,30.22,NNE,23,0.0,0.0,92,0.00,,,0.00,0,Wunderground v.1.15,2013-01-25 08:00:00,
2013-01-25 00:05:00,52.5,50.2,30.22,NNE,24,0.0,0.0,92,0.00,,,0.00,0,Wunderground v.1.15,2013-01-25 08:05:00,
2013-01-25 00:15:00,52.5,50.2,30.21,NNE,23,0.0,0.0,92,0.00,,,0.00,0,Wunderground v.1.15,2013-01-25 08:15:00,
2013-01-25 00:20:00,52.5,50.2,30.21,NNE,23,0.0,0.0,92,0.00,,,0.00,0,Wunderground v.1.15,2013-01-25 08:20:00,
2013-01-25 00:25:00,52.4,50.1,30.21,NNE,24,0.0,0.0,92,0.00,,,0.00,0,Wunderground v.1.15,2013-01-25 08:25:00,
2013-01-25 00:35:00,52.3,50.0,30.21,NNE,25,0.0,0.0,92,0.00,,,0.00,0,Wunderground v.1.15,2013-01-25 08:35:00,
2013-01-25 00:45:00,52.1,49.8,30.21,North,360,2.0,4.0,92,0.00,,,0.00,0,Wunderground v.1.15,2013-01-25 08:45:00,
2013-01-25 00:50:00,52.1,49.8,30.21,NNW,347,4.0,4.0,92,0.00,,,0.00,0,Wunderground v.1.15,2013-01-25 08:50:00,
2013-01-25 01:00:00,52.1,49.8,30.21,North,8,5.0,5.0,92,0.00,,,0.00,0,Wunderground v.1.15,2013-01-25 09:00:00,
2013-01-25 01:05:00,52.1,50.1,30.21,North,8,5.0,5.0,93,0.00,,,0.00,0,Wunderground v.1.15,2013-01-25 09:05:00,
2013-01-25 01:15:00,52.1,50.1,30.21,North,10,5.0,7.0,93,0.00,,,0.00,0,Wunderground v.1.15,2013-01-25 09:15:00,
2013-01-25 01:20:00,52.1,50.1,30.21,North,10,6.0,6.0,93,0.00,,,0.00,0,Wunderground v.1.15,2013-01-25 09:20:00,
2013-01-25 01:30:00,52.1,50.1,30.22,North,7,5.0,5.0,93,0.00,,,0.00,0,Wunderground v.1.15,2013-01-25 09:30:00,
2013-01-25 01:35:00,52.1,50.1,30.22,North,9,5.0,5.0,93,0.00,,,0.00,0,Wunderground v.1.15,2013-01-25 09:35:00,
2013-01-25 01:45:00,52.2,50.2,30.22,NNE,25,5.0,5.0,93,0.00,,,0.00,0,Wunderground v.1.15,2013-01-25 09:45:00,
2013-01-25 01:55:00,52.2,50.5,30.22,NNE,22,4.0,6.0,94,0.00,,,0.00,0,Wunderground v.1.15,2013-01-25 09:55:00,
2013-01-25 02:05:00,52.3,50.6,30.22,NNE,12,5.0,5.0,94,0.00,,,0.00,0,Wunderground v.1.15,2013-01-25 10:05:00,
2013-01-25 02:10:00,52.4,50.7,30.22,North,7,5.0,6.0,94,0.00,,,0.00,0,Wunderground v.1.15,2013-01-25 10:10:00,
2013-01-25 02:15:00,52.4,50.7,30.23,North,7,4.0,6.0,94,0.00,,,0.00,0,Wunderground v.1.15,2013-01-25 10:15:00,
2013-01-25 02:25:00,52.4,50.7,30.23,North,4,5.0,6.0,94,0.00,,,0.00,0,Wunderground v.1.15,2013-01-25 10:25:00,
2013-01-25 02:35:00,52.5,50.8,30.22,NNE,21,5.0,6.0,94,0.00,,,0.00,0,Wunderground v.1.15,2013-01-25 10:35:00,
2013-01-25 02:40:00,52.6,50.9,30.22,NNE,26,4.0,4.0,94,0.00,,,0.00,0,Wunderground v.1.15,2013-01-25 10:40:00,
2013-01-25 02:50:00,52.8,51.1,30.22,NNE,24,4.0,4.0,94,0.00,,,0.00,0,Wunderground v.1.15,2013-01-25 10:50:00,
2013-01-25 02:55:00,52.8,51.1,30.21,NNE,31,4.0,4.0,94,0.00,,,0.00,0,Wunderground v.1.15,2013-01-25 10:55:00,
2013-01-25 03:05:00,52.8,51.1,30.21,NNE,28,4.0,6.0,94,0.00,,,0.00,0,Wunderground v.1.15,2013-01-25 11:05:00,
2013-01-25 03:10:00,52.7,51.0,30.21,NNE,26,3.0,3.0,94,0.00,,,0.00,0,Wunderground v.1.15,2013-01-25 11:10:00,
2013-01-25 03:20:00,52.6,50.9,30.20,NNE,27,2.0,2.0,94,0.00,,,0.00,0,Wunderground v.1.15,2013-01-25 11:20:00,
2013-01-25 03:25:00,52.6,50.9,30.20,NNE,26,1.0,2.0,94,0.00,,,0.00,0,Wunderground v.1.15,2013-01-25 11:25:00,
2013-01-25 03:35:00,52.5,50.8,30.19,NNE,26,0.0,0.0,94,0.00,,,0.00,0,Wunderground v.1.15,2013-01-25 11:35:00,
2013-01-25 03:40:00,52.6,50.9,30.19,NNE,26,0.0,0.0,94,0.00,,,0.00,0,Wunderground v.1.15,2013-01-25 11:40:00,
2013-01-25 03:45:00,52.6,50.9,30.19,NNE,28,0.0,0.0,94,0.00,,,0.00,0,Wunderground v.1.15,2013-01-25 11:45:00,
2013-01-25 03:55:00,52.5,50.8,30.19,NNE,26,0.0,0.0,94,0.00,,,0.00,0,Wunderground v.1.15,2013-01-25 11:55:00,
2013-01-25 04:05:00,52.4,50.7,30.19,NNE,26,0.0,0.0,94,0.00,,,0.00,0,Wunderground v.1.15,2013-01-25 12:05:00,
2013-01-25 04:10:00,52.4,50.7,30.19,NNE,26,1.0,4.0,94,0.00,,,0.00,0,Wunderground v.1.15,2013-01-25 12:10:00,
2013-01-25 04:20:00,52.3,50.6,30.19,NNE,12,3.0,3.0,94,0.00,,,0.00,0,Wunderground v.1.15,2013-01-25 12:20:00,
2013-01-25 04:25:00,52.3,50.6,30.19,NNE,12,3.0,4.0,94,0.00,,,0.00,0,Wunderground v.1.15,2013-01-25 12:25:00,
2013-01-25 04:30:00,52.3,50.6,30.20,North,9,3.0,4.0,94,0.00,,,0.00,0,Wunderground v.1.15,2013-01-25 12:30:00,
2013-01-25 04:40:00,52.2,50.5,30.20,North,8,4.0,4.0,94,0.00,,,0.00,0,Wunderground v.1.15,2013-01-25 12:40:00,
2013-01-25 04:45:00,52.1,50.7,30.20,North,10,4.0,4.0,95,0.00,,,0.00,0,Wunderground v.1.15,2013-01-25 12:45:00,
2013-01-25 04:55:00,52.1,50.7,30.20,NNE,15,3.0,4.0,95,0.00,,,0.00,0,Wunderground v.1.15,2013-01-25 12:55:00,
2013-01-25 05:00:00,52.0,50.6,30.20,NNE,33,4.0,4.0,95,0.00,,,0.00,0,Wunderground v.1.15,2013-01-25 13:00:00,
2013-01-25 05:10:00,52.0,50.6,30.20,NNE,20,5.0,5.0,95,0.00,,,0.00,0,Wunderground v.1.15,2013-01-25 13:10:00,
2013-01-25 05:15:00,52.0,50.6,30.20,NNE,33,5.0,5.0,95,0.00,,,0.00,0,Wunderground v.1.15,2013-01-25 13:15:00,
2013-01-25 05:25:00,52.0,50.6,30.20,NNE,31,5.0,6.0,95,0.00,,,0.00,0,Wunderground v.1.15,2013-01-25 13:25:00,
2013-01-25 05:35:00,51.9,50.5,30.20,North,11,4.0,5.0,95,0.00,,,0.00,0,Wunderground v.1.15,2013-01-25 13:35:00,
2013-01-25 05:40:00,51.9,50.5,30.20,NNE,14,4.0,4.0,95,0.00,,,0.00,0,Wunderground v.1.15,2013-01-25 13:40:00,
2013-01-25 05:50:00,51.7,50.3,30.20,North,11,5.0,5.0,95,0.00,,,0.00,0,Wunderground v.1.15,2013-01-25 13:50:00,
2013-01-25 05:55:00,51.7,50.3,30.20,NE,35,4.0,6.0,95,0.00,,,0.00,0,Wunderground v.1.15,2013-01-25 13:55:00,
2013-01-25 06:05:00,51.7,50.3,30.20,NNE,26,5.0,6.0,95,0.00,,,0.00,0,Wunderground v.1.15,2013-01-25 14:05:00,
2013-01-25 06:15:00,51.7,50.6,30.20,NNE,33,4.0,5.0,96,0.00,,,0.00,0,Wunderground v.1.15,2013-01-25 14:15:00,
2013-01-25 06:25:00,51.7,50.6,30.20,NNE,23,3.0,6.0,96,0.00,,,0.00,0,Wunderground v.1.15,2013-01-25 14:25:00,
2013-01-25 06:30:00,51.7,50.6,30.20,NNE,25,4.0,4.0,96,0.00,,,0.00,0,Wunderground v.1.15,2013-01-25 14:30:00,
2013-01-25 06:40:00,51.7,50.6,30.20,NNE,18,4.0,4.0,96,0.00,,,0.00,0,Wunderground v.1.15,2013-01-25 14:40:00,
2013-01-25 06:45:00,51.7,50.6,30.20,NNE,16,4.0,4.0,96,0.00,,,0.00,0,Wunderground v.1.15,2013-01-25 14:45:00,
2013-01-25 06:55:00,51.6,50.5,30.20,NNE,18,3.0,4.0,96,0.00,,,0.00,0,Wunderground v.1.15,2013-01-25 14:55:00,
2013-01-25 07:00:00,51.6,50.5,30.19,NNE,28,3.0,3.0,96,0.00,,,0.00,0,Wunderground v.1.15,2013-01-25 15:00:00,
2013-01-25 07:10:00,51.7,50.6,30.19,NNE,25,3.0,4.0,96,0.00,,,0.00,0,Wunderground v.1.15,2013-01-25 15:10:00,
2013-01-25 07:15:00,51.7,50.6,30.19,NNE,26,3.0,4.0,96,0.00,,,0.00,0,Wunderground v.1.15,2013-01-25 15:15:00,
2013-01-25 07:25:00,51.6,50.5,30.19,NNE,16,4.0,4.0,96,0.00,,,0.00,5,Wunderground v.1.15,2013-01-25 15:25:00,
2013-01-25 07:30:00,51.6,50.5,30.19,NNE,14,4.0,4.0,96,0.00,,,0.00,7,Wunderground v.1.15,2013-01-25 15:30:00,
2013-01-25 07:40:00,51.4,50.3,30.19,North,8,2.0,2.0,96,0.00,,,0.00,12,Wunderground v.1.15,2013-01-25 15:40:00,
2013-01-25 07:45:00,51.3,50.2,30.19,SSW,213,2.0,4.0,96,0.00,,,0.00,12,Wunderground v.1.15,2013-01-25 15:45:00,
2013-01-25 07:55:00,51.2,50.1,30.19,SSW,213,4.0,5.0,96,0.00,,,0.00,16,Wunderground v.1.15,2013-01-25 15:55:00,
2013-01-25 08:05:00,51.3,50.2,30.19,SSW,213,5.0,5.0,96,0.00,,,0.00,58,Wunderground v.1.15,2013-01-25 16:05:00,
2013-01-25 08:15:00,52.8,52.0,30.20,North,5,4.0,4.0,97,0.00,,,0.00,83,Wunderground v.1.15,2013-01-25 16:15:00,
2013-01-25 08:25:00,53.5,52.4,30.19,SSW,213,6.0,7.0,96,0.00,,,0.00,111,Wunderground v.1.15,2013-01-25 16:25:00,
2013-01-25 08:30:00,53.7,52.6,30.20,North,8,7.0,9.0,96,0.00,,,0.00,134,Wunderground v.1.15,2013-01-25 16:30:00,
2013-01-25 08:40:00,53.5,52.1,30.20,NNE,14,7.0,7.0,95,0.00,,,0.00,69,Wunderground v.1.15,2013-01-25 16:40:00,
2013-01-25 08:45:00,53.4,52.0,30.19,SSW,213,6.0,7.0,95,0.00,,,0.00,128,Wunderground v.1.15,2013-01-25 16:45:00,
2013-01-25 08:55:00,54.6,53.2,30.19,SSW,213,4.0,5.0,95,0.00,,,0.00,169,Wunderground v.1.15,2013-01-25 16:55:00,
2013-01-25 09:00:00,54.9,53.2,30.19,NNE,18,5.0,5.0,94,0.00,,,0.00,120,Wunderground v.1.15,2013-01-25 17:00:00,
2013-01-25 09:05:00,55.0,53.3,30.19,North,2,5.0,6.0,94,0.00,,,0.00,76,Wunderground v.1.15,2013-01-25 17:05:00,
2013-01-25 09:15:00,54.7,52.7,30.19,North,5,5.0,5.0,93,0.00,,,0.00,79,Wunderground v.1.15,2013-01-25 17:15:00,
2013-01-25 09:20:00,54.8,52.8,30.19,NNE,12,4.0,6.0,93,0.00,,,0.00,176,Wunderground v.1.15,2013-01-25 17:20:00,
2013-01-25 09:30:00,55.1,53.1,30.19,SSW,213,7.0,12.0,93,0.00,,,0.00,306,Wunderground v.1.15,2013-01-25 17:30:00,
2013-01-25 09:40:00,56.7,54.7,30.19,North,357,6.0,6.0,93,0.00,,,0.00,325,Wunderground v.1.15,2013-01-25 17:40:00,
2013-01-25 09:45:00,58.2,55.9,30.19,SSW,213,4.0,6.0,92,0.00,,,0.00,338,Wunderground v.1.15,2013-01-25 17:45:00,
2013-01-25 09:50:00,59.5,56.3,30.20,SSW,213,4.0,8.0,89,0.00,,,0.00,350,Wunderground v.1.15,2013-01-25 17:50:00,
2013-01-25 10:00:00,60.5,56.0,30.20,NNE,15,7.0,7.0,85,0.00,,,0.00,394,Wunderground v.1.15,2013-01-25 18:00:00,
2013-01-25 10:05:00,60.9,56.0,30.20,NNE,17,7.0,7.0,84,0.00,,,0.00,396,Wunderground v.1.15,2013-01-25 18:05:00,
2013-01-25 10:15:00,63.0,57.1,30.19,NNE,18,1.0,4.0,81,0.00,,,0.00,374,Wunderground v.1.15,2013-01-25 18:15:00,
2013-01-25 10:25:00,62.8,55.8,30.19,SSW,213,2.0,3.0,78,0.00,,,0.00,413,Wunderground v.1.15,2013-01-25 18:25:00,
2013-01-25 10:30:00,63.4,56.1,30.19,East,98,0.0,0.0,77,0.00,,,0.00,422,Wunderground v.1.15,2013-01-25 18:30:00,
2013-01-25 10:40:00,62.1,53.7,30.18,South,179,2.0,4.0,74,0.00,,,0.00,443,Wunderground v.1.15,2013-01-25 18:40:00,
2013-01-25 10:45:00,60.1,53.6,30.18,SSW,213,3.0,4.0,79,0.00,,,0.00,448,Wunderground v.1.15,2013-01-25 18:45:00,
2013-01-25 10:55:00,59.6,54.1,30.18,South,184,1.0,2.0,82,0.00,,,0.00,466,Wunderground v.1.15,2013-01-25 18:55:00,
2013-01-25 11:00:00,60.4,55.2,30.18,North,352,1.0,1.0,83,0.00,,,0.00,468,Wunderground v.1.15,2013-01-25 19:00:00,
2013-01-25 11:10:00,62.3,55.4,30.18,SSW,213,6.0,6.0,78,0.00,,,0.00,485,Wunderground v.1.15,2013-01-25 19:10:00,
2013-01-25 11:15:00,62.7,55.7,30.18,NNW,334,6.0,9.0,78,0.00,,,0.00,490,Wunderground v.1.15,2013-01-25 19:15:00,
2013-01-25 11:25:00,62.5,54.8,30.17,SSW,213,5.0,6.0,76,0.00,,,0.00,513,Wunderground v.1.15,2013-01-25 19:25:00,
2013-01-25 11:30:00,61.4,54.1,30.17,SSW,213,5.0,5.0,77,0.00,,,0.00,513,Wunderground v.1.15,2013-01-25 19:30:00,
2013-01-25 11:40:00,62.2,55.6,30.17,SSW,213,5.0,5.0,79,0.00,,,0.00,529,Wunderground v.1.15,2013-01-25 19:40:00,
2013-01-25 11:45:00,62.5,55.5,30.17,NNW,327,6.0,7.0,78,0.00,,,0.00,524,Wunderground v.1.15,2013-01-25 19:45:00,
2013-01-25 11:55:00,63.0,55.7,30.16,NNW,343,5.0,7.0,77,0.00,,,0.00,538,Wunderground v.1.15,2013-01-25 19:55:00,
2013-01-25 12:00:00,63.8,56.4,30.16,North,8,5.0,6.0,77,0.00,,,0.00,545,Wunderground v.1.15,2013-01-25 20:00:00,
2013-01-25 12:10:00,65.1,56.2,30.15,North,353,6.0,8.0,73,0.00,,,0.00,548,Wunderground v.1.15,2013-01-25 20:10:00,
2013-01-25 12:20:00,65.7,56.4,30.14,SSW,213,6.0,6.0,72,0.00,,,0.00,552,Wunderground v.1.15,2013-01-25 20:20:00,
2013-01-25 12:25:00,66.3,57.0,30.13,North,357,4.0,6.0,72,0.00,,,0.00,548,Wunderground v.1.15,2013-01-25 20:25:00,
2013-01-25 12:35:00,66.5,56.4,30.13,NNW,343,5.0,10.0,70,0.00,,,0.00,557,Wunderground v.1.15,2013-01-25 20:35:00,
2013-01-25 12:40:00,66.6,56.9,30.13,North,356,6.0,6.0,71,0.00,,,0.00,555,Wunderground v.1.15,2013-01-25 20:40:00,
2013-01-25 12:45:00,67.1,57.4,30.12,SSW,213,6.0,6.0,71,0.00,,,0.00,557,Wunderground v.1.15,2013-01-25 20:45:00,
2013-01-25 12:55:00,67.1,57.0,30.12,North,350,6.0,6.0,70,0.00,,,0.00,557,Wunderground v.1.15,2013-01-25 20:55:00,
2013-01-25 13:00:00,66.8,56.7,30.11,NNW,345,6.0,8.0,70,0.00,,,0.00,555,Wunderground v.1.15,2013-01-25 21:00:00,
2013-01-25 13:10:00,66.1,56.4,30.11,NNW,330,8.0,9.0,71,0.00,,,0.00,554,Wunderground v.1.15,2013-01-25 21:10:00,
2013-01-25 13:15:00,65.4,56.1,30.11,SSW,213,9.0,10.0,72,0.00,,,0.00,552,Wunderground v.1.15,2013-01-25 21:15:00,
2013-01-25 13:25:00,64.9,56.0,30.11,SSW,213,9.0,11.0,73,0.00,,,0.00,548,Wunderground v.1.15,2013-01-25 21:25:00,
2013-01-25 13:35:00,65.6,56.3,30.11,SSW,213,6.0,8.0,72,0.00,,,0.00,540,Wunderground v.1.15,2013-01-25 21:35:00,
2013-01-25 13:40:00,66.2,56.9,30.10,NNE,26,5.0,5.0,72,0.00,,,0.00,538,Wunderground v.1.15,2013-01-25 21:40:00,
2013-01-25 13:50:00,67.5,57.0,30.10,SSW,213,5.0,6.0,69,0.00,,,0.00,524,Wunderground v.1.15,2013-01-25 21:50:00,
2013-01-25 13:55:00,67.9,56.9,30.10,North,357,4.0,6.0,68,0.00,,,0.00,520,Wunderground v.1.15,2013-01-25 21:55:00,
2013-01-25 14:05:00,68.2,56.8,30.10,SSW,213,5.0,7.0,67,0.00,,,0.00,510,Wunderground v.1.15,2013-01-25 22:05:00,
2013-01-25 14:10:00,68.1,56.7,30.10,North,10,5.0,5.0,67,0.00,,,0.00,503,Wunderground v.1.15,2013-01-25 22:10:00,
2013-01-25 14:20:00,68.1,56.7,30.10,SSW,213,6.0,6.0,67,0.00,,,0.00,485,Wunderground v.1.15,2013-01-25 22:20:00,
2013-01-25 14:25:00,68.2,56.8,30.10,SSW,213,5.0,6.0,67,0.00,,,0.00,482,Wunderground v.1.15,2013-01-25 22:25:00,
2013-01-25 14:35:00,68.9,56.6,30.09,SSW,213,4.0,7.0,65,0.00,,,0.00,464,Wunderground v.1.15,2013-01-25 22:35:00,
2013-01-25 14:45:00,68.7,55.6,30.09,SSW,213,5.0,6.0,63,0.00,,,0.00,448,Wunderground v.1.15,2013-01-25 22:45:00,
2013-01-25 14:50:00,68.9,56.2,30.09,North,9,5.0,5.0,64,0.00,,,0.00,434,Wunderground v.1.15,2013-01-25 22:50:00,
2013-01-25 15:00:00,69.6,56.0,30.09,SSW,213,4.0,5.0,62,0.00,,,0.00,415,Wunderground v.1.15,2013-01-25 23:00:00,
2013-01-25 15:05:00,70.0,55.9,30.09,SSW,213,4.0,5.0,61,0.00,,,0.00,410,Wunderground v.1.15,2013-01-25 23:05:00,
2013-01-25 15:15:00,69.2,55.6,30.08,SSW,213,7.0,10.0,62,0.00,,,0.00,385,Wunderground v.1.15,2013-01-25 23:15:00,
2013-01-25 15:20:00,68.6,55.1,30.08,SSW,213,7.0,7.0,62,0.00,,,0.00,367,Wunderground v.1.15,2013-01-25 23:20:00,
2013-01-25 15:30:00,68.4,55.3,30.08,NNE,23,6.0,8.0,63,0.00,,,0.00,336,Wunderground v.1.15,2013-01-25 23:30:00,
2013-01-25 15:35:00,67.8,54.7,30.08,NNE,12,8.0,9.0,63,0.00,,,0.00,322,Wunderground v.1.15,2013-01-25 23:35:00,
2013-01-25 15:45:00,67.4,55.6,30.08,North,358,8.0,11.0,66,0.00,,,0.00,297,Wunderground v.1.15,2013-01-25 23:45:00,
2013-01-25 15:50:00,67.3,56.0,30.07,SSW,213,7.0,8.0,67,0.00,,,0.00,281,Wunderground v.1.15,2013-01-25 23:50:00,
2013-01-25 16:00:00,67.2,56.3,30.07,North,5,6.0,6.0,68,0.00,,,0.00,251,Wunderground v.1.15,2013-01-26 00:00:00,
2013-01-25 16:05:00,67.1,56.2,30.07,NNE,28,6.0,6.0,68,0.00,,,0.00,236,Wunderground v.1.15,2013-01-26 00:05:00,
2013-01-25 16:15:00,66.7,56.2,30.07,NNE,18,6.0,8.0,69,0.00,,,0.00,200,Wunderground v.1.15,2013-01-26 00:15:00,
2013-01-25 16:20:00,66.3,56.2,30.06,NNE,18,7.0,8.0,70,0.00,,,0.00,185,Wunderground v.1.15,2013-01-26 00:20:00,
2013-01-25 16:30:00,65.3,55.7,30.06,NNE,18,8.0,11.0,71,0.00,,,0.00,155,Wunderground v.1.15,2013-01-26 00:30:00,
2013-01-25 16:35:00,64.8,55.6,30.06,NNE,16,9.0,11.0,72,0.00,,,0.00,141,Wunderground v.1.15,2013-01-26 00:35:00,
2013-01-25 16:45:00,64.5,55.3,30.06,NNE,15,6.0,8.0,72,0.00,,,0.00,105,Wunderground v.1.15,2013-01-26 00:45:00,
2013-01-25 16:50:00,64.3,54.7,30.06,SSW,213,6.0,8.0,71,0.00,,,0.00,90,Wunderground v.1.15,2013-01-26 00:50:00,
2013-01-25 17:00:00,63.3,54.1,30.06,North,10,6.0,9.0,72,0.00,,,0.00,25,Wunderground v.1.15,2013-01-26 01:00:00,
2013-01-25 17:05:00,62.7,53.9,30.05,SSW,213,5.0,9.0,73,0.00,,,0.00,21,Wunderground v.1.15,2013-01-26 01:05:00,
2013-01-25 17:10:00,62.3,53.9,30.05,SSW,213,5.0,5.0,74,0.00,,,0.00,19,Wunderground v.1.15,2013-01-26 01:10:00,
2013-01-25 17:20:00,61.7,53.7,30.06,NNE,15,4.0,4.0,75,0.00,,,0.00,9,Wunderground v.1.15,2013-01-26 01:20:00,
2013-01-25 17:30:00,61.1,53.5,30.06,NNE,19,4.0,4.0,76,0.00,,,0.00,0,Wunderground v.1.15,2013-01-26 01:30:00,
2013-01-25 17:35:00,60.9,53.3,30.06,NNE,22,4.0,4.0,76,0.00,,,0.00,0,Wunderground v.1.15,2013-01-26 01:35:00,
2013-01-25 17:45:00,60.6,53.3,30.06,NNE,25,3.0,5.0,77,0.00,,,0.00,0,Wunderground v.1.15,2013-01-26 01:45:00,
2013-01-25 17:55:00,60.3,53.1,30.06,NNE,25,2.0,3.0,77,0.00,,,0.00,0,Wunderground v.1.15,2013-01-26 01:55:00,
2013-01-25 18:00:00,60.1,53.2,30.06,NNE,25,1.0,1.0,78,0.00,,,0.00,0,Wunderground v.1.15,2013-01-26 02:00:00,
2013-01-25 18:05:00,59.9,53.0,30.06,NNE,26,0.0,1.0,78,0.00,,,0.00,0,Wunderground v.1.15,2013-01-26 02:05:00,
2013-01-25 18:15:00,59.6,52.7,30.05,NNE,26,1.0,1.0,78,0.00,,,0.00,0,Wunderground v.1.15,2013-01-26 02:15:00,
2013-01-25 18:25:00,59.4,52.9,30.06,NNE,26,1.0,1.0,79,0.00,,,0.00,0,Wunderground v.1.15,2013-01-26 02:25:00,
2013-01-25 18:30:00,59.3,52.8,30.06,NNE,27,0.0,0.0,79,0.00,,,0.00,0,Wunderground v.1.15,2013-01-26 02:30:00,
2013-01-25 18:40:00,59.1,52.6,30.06,NNE,26,0.0,0.0,79,0.00,,,0.00,0,Wunderground v.1.15,2013-01-26 02:40:00,
2013-01-25 18:50:00,59.1,52.9,30.07,NNE,26,0.0,0.0,80,0.00,,,0.00,0,Wunderground v.1.15,2013-01-26 02:50:00,
2013-01-25 18:55:00,59.0,52.8,30.07,NNE,26,0.0,0.0,80,0.00,,,0.00,0,Wunderground v.1.15,2013-01-26 02:55:00,
2013-01-25 19:05:00,58.8,52.6,30.07,NNE,25,0.0,0.0,80,0.00,,,0.00,0,Wunderground v.1.15,2013-01-26 03:05:00,
2013-01-25 19:10:00,58.7,52.5,30.07,NNE,26,0.0,0.0,80,0.00,,,0.00,0,Wunderground v.1.15,2013-01-26 03:10:00,
2013-01-25 19:20:00,58.6,52.8,30.07,NNE,26,0.0,0.0,81,0.00,,,0.00,0,Wunderground v.1.15,2013-01-26 03:20:00,
2013-01-25 19:25:00,58.6,52.8,30.07,NNE,24,0.0,0.0,81,0.00,,,0.00,0,Wunderground v.1.15,2013-01-26 03:25:00,
2013-01-25 19:35:00,58.4,52.6,30.08,NNE,24,0.0,0.0,81,0.00,,,0.00,0,Wunderground v.1.15,2013-01-26 03:35:00,
2013-01-25 19:40:00,58.3,52.5,30.07,NNE,24,0.0,0.0,81,0.00,,,0.00,0,Wunderground v.1.15,2013-01-26 03:40:00,
2013-01-25 19:50:00,58.2,52.7,30.07,NNE,26,0.0,0.0,82,0.00,,,0.00,0,Wunderground v.1.15,2013-01-26 03:50:00,
2013-01-25 19:55:00,58.4,52.9,30.07,NNE,25,0.0,0.0,82,0.00,,,0.00,0,Wunderground v.1.15,2013-01-26 03:55:00,
2013-01-25 20:05:00,58.3,52.8,30.07,NNW,334,2.0,3.0,82,0.00,,,0.00,0,Wunderground v.1.15,2013-01-26 04:05:00,
2013-01-25 20:15:00,58.1,53.0,30.07,NNW,337,1.0,3.0,83,0.00,,,0.00,0,Wunderground v.1.15,2013-01-26 04:15:00,
2013-01-25 20:20:00,57.9,52.8,30.07,NNW,336,0.0,0.0,83,0.00,,,0.00,0,Wunderground v.1.15,2013-01-26 04:20:00,
2013-01-25 20:30:00,57.8,52.7,30.07,NNW,335,0.0,0.0,83,0.00,,,0.00,0,Wunderground v.1.15,2013-01-26 04:30:00,
2013-01-25 20:35:00,57.7,52.9,30.07,NNW,335,0.0,0.0,84,0.00,,,0.00,0,Wunderground v.1.15,2013-01-26 04:35:00,
2013-01-25 20:45:00,57.6,52.8,30.07,NNW,335,0.0,0.0,84,0.00,,,0.00,0,Wunderground v.1.15,2013-01-26 04:45:00,
2013-01-25 20:55:00,57.4,52.3,30.07,NNW,336,0.0,0.0,83,0.00,,,0.00,0,Wunderground v.1.15,2013-01-26 04:55:00,
2013-01-25 21:05:00,57.2,52.4,30.07,NNW,336,0.0,0.0,84,0.00,,,0.00,0,Wunderground v.1.15,2013-01-26 05:05:00,
2013-01-25 21:10:00,57.1,52.3,30.07,NNW,336,0.0,0.0,84,0.00,,,0.00,0,Wunderground v.1.15,2013-01-26 05:10:00,
2013-01-25 21:15:00,57.1,52.3,30.07,NNW,338,0.0,0.0,84,0.00,,,0.00,0,Wunderground v.1.15,2013-01-26 05:15:00,
2013-01-25 21:25:00,57.1,52.3,30.08,NNW,336,0.0,0.0,84,0.00,,,0.00,0,Wunderground v.1.15,2013-01-26 05:25:00,
2013-01-25 21:30:00,57.0,52.2,30.08,NNW,336,0.0,0.0,84,0.00,,,0.00,0,Wunderground v.1.15,2013-01-26 05:30:00,
2013-01-25 21:40:00,56.8,52.3,30.08,NNW,336,0.0,0.0,85,0.00,,,0.00,0,Wunderground v.1.15,2013-01-26 05:40:00,
2013-01-25 21:45:00,56.8,52.3,30.08,NNW,336,0.0,0.0,85,0.00,,,0.00,0,Wunderground v.1.15,2013-01-26 05:45:00,
2013-01-25 21:50:00,56.7,52.2,30.08,NNW,338,0.0,0.0,85,0.00,,,0.00,0,Wunderground v.1.15,2013-01-26 05:50:00,
2013-01-25 22:00:00,56.5,52.4,30.08,NNW,335,0.0,0.0,86,0.00,,,0.00,0,Wunderground v.1.15,2013-01-26 06:00:00,
2013-01-25 22:10:00,56.3,52.2,30.08,NNW,334,0.0,0.0,86,0.00,,,0.00,0,Wunderground v.1.15,2013-01-26 06:10:00,
2013-01-25 22:15:00,56.0,51.9,30.08,NNW,336,0.0,0.0,86,0.00,,,0.00,0,Wunderground v.1.15,2013-01-26 06:15:00,
2013-01-25 22:25:00,56.0,52.2,30.08,NNW,334,0.0,0.0,87,0.00,,,0.00,0,Wunderground v.1.15,2013-01-26 06:25:00,
2013-01-25 22:35:00,55.8,52.0,30.08,NNW,334,0.0,0.0,87,0.00,,,0.00,0,Wunderground v.1.15,2013-01-26 06:35:00,
2013-01-25 22:40:00,55.6,51.8,30.08,NNW,336,0.0,0.0,87,0.00,,,0.00,0,Wunderground v.1.15,2013-01-26 06:40:00,
2013-01-25 22:50:00,54.9,51.1,30.08,NNW,336,0.0,0.0,87,0.00,,,0.00,0,Wunderground v.1.15,2013-01-26 06:50:00,
2013-01-25 23:00:00,54.8,51.3,30.08,NNW,338,0.0,0.0,88,0.00,,,0.00,0,Wunderground v.1.15,2013-01-26 07:00:00,
2013-01-25 23:10:00,54.8,51.3,30.08,NNW,336,0.0,0.0,88,0.00,,,0.00,0,Wunderground v.1.15,2013-01-26 07:10:00,
2013-01-25 23:15:00,54.8,51.3,30.08,NNW,336,0.0,0.0,88,0.00,,,0.00,0,Wunderground v.1.15,2013-01-26 07:15:00,
2013-01-25 23:25:00,54.2,51.0,30.08,NNW,336,0.0,0.0,89,0.00,,,0.00,0,Wunderground v.1.15,2013-01-26 07:25:00,
2013-01-25 23:30:00,54.1,50.9,30.08,NNW,336,0.0,0.0,89,0.00,,,0.00,0,Wunderground v.1.15,2013-01-26 07:30:00,
2013-01-25 23:40:00,53.9,50.7,30.08,NNW,335,0.0,0.0,89,0.00,,,0.00,0,Wunderground v.1.15,2013-01-26 07:40:00,
2013-01-25 23:45:00,53.8,50.6,30.08,NNW,338,0.0,0.0,89,0.00,,,0.00,0,Wunderground v.1.15,2013-01-26 07:45:00,
2013-01-25 23:55:00,53.7,50.8,30.08,NNW,339,0.0,0.0,90,0.00,,,0.00,0,Wunderground v.1.15,2013-01-26 07:55:00,